Decoded Metar for LFQQ (LILLE in FRANCE) (IATA:LIL) | Meteo·Mobile Aviation Weather
aviador You're here:

LFQQ Decoded Metar

LILLE in FRANCE
Report Time2019-07-19 19:00:00
UTC Time2019-07-19 19:28:24
Flight Rules vfr VFR
Wind200° at 03 kt
W.Decomp.*RWY 20: 3.0 kt HW 0 kt LCW
RWY 26: 1.5 kt HW 2.6 kt LCW
Visibility9999 m
Phenomena:N/A
Clouds:N/A
Expected CloudBase > 4,800 ft AGL from Temp-Dew spread
CeilingNone
Temp25°C (ISA +10)
Dew Point13°C (47% RH)
AAT24.8°C
QNH1012 hPa
Density Alt1,604 ft
Elevation171 ft
Report Wrong Elevation
Raw Report
LFQQ 191900Z AUTO 20003KT CAVOK 25/13 Q1012 NOSIG=

Extra information for LFQQ:More info

Metar Taf Metar & Taf Last 4 Metars F.Rules Stats Wind Profile Meteogram Temp Stats Airport Information Weather charts Add Link Nearby VenuesMetar ALERT Operation Metar Decoded Social comments